sensor_id;sensor_type;location;lat;lon;timestamp;pressure;altitude;pressure_sealevel;temperature
18713;BMP280;9485;49.386;8.674;2023-07-24T00:03:19;99605.13;;;23.16
18713;BMP280;9485;49.386;8.674;2023-07-24T00:08:40;99596.03;;;23.19
18713;BMP280;9485;49.386;8.674;2023-07-24T00:14:02;99591.97;;;23.13
18713;BMP280;9485;49.386;8.674;2023-07-24T00:19:22;99603.50;;;23.22
18713;BMP280;9485;49.386;8.674;2023-07-24T00:24:43;99596.06;;;23.29
18713;BMP280;9485;49.386;8.674;2023-07-24T00:30:07;99591.66;;;23.28
18713;BMP280;9485;49.386;8.674;2023-07-24T00:35:28;99579.53;;;23.20
18713;BMP280;9485;49.386;8.674;2023-07-24T00:40:49;99581.94;;;23.14
18713;BMP280;9485;49.386;8.674;2023-07-24T00:46:12;99580.56;;;23.15
18713;BMP280;9485;49.386;8.674;2023-07-24T00:51:35;99576.78;;;23.12
18713;BMP280;9485;49.386;8.674;2023-07-24T00:56:56;99570.28;;;23.12
18713;BMP280;9485;49.386;8.674;2023-07-24T01:02:18;99560.28;;;23.13
18713;BMP280;9485;49.386;8.674;2023-07-24T01:07:40;99549.34;;;23.11
18713;BMP280;9485;49.386;8.674;2023-07-24T01:13:09;99537.09;;;23.11
18713;BMP280;9485;49.386;8.674;2023-07-24T01:18:38;99536.88;;;22.99
18713;BMP280;9485;49.386;8.674;2023-07-24T01:24:09;99522.94;;;22.96
18713;BMP280;9485;49.386;8.674;2023-07-24T01:29:36;99516.72;;;22.90
18713;BMP280;9485;49.386;8.674;2023-07-24T01:34:56;99517.00;;;22.84
18713;BMP280;9485;49.386;8.674;2023-07-24T01:40:18;99510.03;;;22.87
18713;BMP280;9485;49.386;8.674;2023-07-24T01:45:41;99512.31;;;22.89
18713;BMP280;9485;49.386;8.674;2023-07-24T01:51:02;99528.97;;;22.90
18713;BMP280;9485;49.386;8.674;2023-07-24T01:56:23;99524.91;;;22.93
18713;BMP280;9485;49.386;8.674;2023-07-24T02:01:44;99519.44;;;22.97
18713;BMP280;9485;49.386;8.674;2023-07-24T02:07:05;99502.50;;;23.01
18713;BMP280;9485;49.386;8.674;2023-07-24T02:12:26;99502.78;;;22.96
18713;BMP280;9485;49.386;8.674;2023-07-24T02:17:48;99492.63;;;22.95
18713;BMP280;9485;49.386;8.674;2023-07-24T02:23:10;99474.44;;;22.92
18713;BMP280;9485;49.386;8.674;2023-07-24T02:28:32;99475.63;;;22.89
18713;BMP280;9485;49.386;8.674;2023-07-24T02:33:54;99466.63;;;23.02
18713;BMP280;9485;49.386;8.674;2023-07-24T02:39:14;99465.09;;;23.11
18713;BMP280;9485;49.386;8.674;2023-07-24T02:44:35;99479.19;;;23.16
18713;BMP280;9485;49.386;8.674;2023-07-24T02:49:57;99465.25;;;23.22
18713;BMP280;9485;49.386;8.674;2023-07-24T02:55:18;99454.19;;;23.28
18713;BMP280;9485;49.386;8.674;2023-07-24T03:00:39;99454.78;;;23.27
18713;BMP280;9485;49.386;8.674;2023-07-24T03:06:01;99451.44;;;23.21
18713;BMP280;9485;49.386;8.674;2023-07-24T03:11:22;99446.91;;;23.18
18713;BMP280;9485;49.386;8.674;2023-07-24T03:16:43;99431.59;;;23.15
18713;BMP280;9485;49.386;8.674;2023-07-24T03:22:05;99424.16;;;23.12
18713;BMP280;9485;49.386;8.674;2023-07-24T03:27:26;99431.44;;;23.04
18713;BMP280;9485;49.386;8.674;2023-07-24T03:32:47;99419.13;;;22.94
18713;BMP280;9485;49.386;8.674;2023-07-24T03:38:09;99420.50;;;22.93
18713;BMP280;9485;49.386;8.674;2023-07-24T03:43:29;99421.44;;;22.95
18713;BMP280;9485;49.386;8.674;2023-07-24T03:48:50;99417.78;;;22.95
18713;BMP280;9485;49.386;8.674;2023-07-24T03:54:12;99406.41;;;22.97
18713;BMP280;9485;49.386;8.674;2023-07-24T03:59:33;99402.19;;;22.98
18713;BMP280;9485;49.386;8.674;2023-07-24T04:04:53;99398.53;;;22.97
18713;BMP280;9485;49.386;8.674;2023-07-24T04:10:16;99419.28;;;22.96
18713;BMP280;9485;49.386;8.674;2023-07-24T04:15:37;99420.50;;;22.93
18713;BMP280;9485;49.386;8.674;2023-07-24T04:20:59;99406.88;;;22.93
18713;BMP280;9485;49.386;8.674;2023-07-24T04:26:21;99408.69;;;22.98
18713;BMP280;9485;49.386;8.674;2023-07-24T04:31:43;99403.53;;;22.97
18713;BMP280;9485;49.386;8.674;2023-07-24T04:37:04;99399.44;;;23.00
18713;BMP280;9485;49.386;8.674;2023-07-24T04:42:27;99384.31;;;23.09
18713;BMP280;9485;49.386;8.674;2023-07-24T04:47:48;99376.44;;;23.19
18713;BMP280;9485;49.386;8.674;2023-07-24T04:53:09;99368.84;;;23.23
18713;BMP280;9485;49.386;8.674;2023-07-24T04:58:30;99378.41;;;23.26
18713;BMP280;9485;49.386;8.674;2023-07-24T05:03:51;99383.69;;;23.29
18713;BMP280;9485;49.386;8.674;2023-07-24T05:09:11;99377.78;;;23.27
18713;BMP280;9485;49.386;8.674;2023-07-24T05:14:35;99387.03;;;23.35
18713;BMP280;9485;49.386;8.674;2023-07-24T05:19:55;99373.22;;;23.43
18713;BMP280;9485;49.386;8.674;2023-07-24T05:25:18;99366.53;;;23.50
18713;BMP280;9485;49.386;8.674;2023-07-24T05:30:40;99385.91;;;23.49
18713;BMP280;9485;49.386;8.674;2023-07-24T05:36:02;99406.53;;;23.46
18713;BMP280;9485;49.386;8.674;2023-07-24T05:41:24;99405.19;;;23.47
18713;BMP280;9485;49.386;8.674;2023-07-24T05:46:48;99403.03;;;23.57
18713;BMP280;9485;49.386;8.674;2023-07-24T05:52:08;99406.06;;;23.68
18713;BMP280;9485;49.386;8.674;2023-07-24T05:57:30;99418.63;;;23.82
18713;BMP280;9485;49.386;8.674;2023-07-24T06:02:52;99422.06;;;23.90
18713;BMP280;9485;49.386;8.674;2023-07-24T06:08:13;99414.34;;;23.93
18713;BMP280;9485;49.386;8.674;2023-07-24T06:13:34;99428.09;;;24.04
18713;BMP280;9485;49.386;8.674;2023-07-24T06:18:57;99433.97;;;24.15
18713;BMP280;9485;49.386;8.674;2023-07-24T06:24:17;99440.78;;;24.20
18713;BMP280;9485;49.386;8.674;2023-07-24T06:29:38;99434.06;;;24.26
18713;BMP280;9485;49.386;8.674;2023-07-24T06:35:00;99435.72;;;24.29
18713;BMP280;9485;49.386;8.674;2023-07-24T06:40:21;99437.53;;;24.34
18713;BMP280;9485;49.386;8.674;2023-07-24T06:45:42;99437.78;;;24.48
18713;BMP280;9485;49.386;8.674;2023-07-24T06:51:04;99449.41;;;24.59
18713;BMP280;9485;49.386;8.674;2023-07-24T06:56:25;99438.56;;;24.69
18713;BMP280;9485;49.386;8.674;2023-07-24T07:01:46;99438.13;;;24.84
18713;BMP280;9485;49.386;8.674;2023-07-24T07:07:08;99435.88;;;25.03
18713;BMP280;9485;49.386;8.674;2023-07-24T07:12:30;99438.00;;;25.03
18713;BMP280;9485;49.386;8.674;2023-07-24T07:17:51;99428.66;;;24.93
18713;BMP280;9485;49.386;8.674;2023-07-24T07:23:14;99418.41;;;24.81
18713;BMP280;9485;49.386;8.674;2023-07-24T07:28:35;99431.00;;;24.85
18713;BMP280;9485;49.386;8.674;2023-07-24T07:33:56;99429.47;;;25.05
18713;BMP280;9485;49.386;8.674;2023-07-24T07:39:18;99438.03;;;25.24
18713;BMP280;9485;49.386;8.674;2023-07-24T07:44:39;99438.59;;;25.11
18713;BMP280;9485;49.386;8.674;2023-07-24T07:50:01;99448.94;;;25.25
18713;BMP280;9485;49.386;8.674;2023-07-24T07:55:23;99447.50;;;25.36
18713;BMP280;9485;49.386;8.674;2023-07-24T08:00:44;99470.47;;;25.34
18713;BMP280;9485;49.386;8.674;2023-07-24T08:06:05;99461.25;;;25.58
18713;BMP280;9485;49.386;8.674;2023-07-24T08:11:29;99473.75;;;25.72
18713;BMP280;9485;49.386;8.674;2023-07-24T08:16:53;99466.53;;;25.82
18713;BMP280;9485;49.386;8.674;2023-07-24T08:22:14;99436.50;;;25.87
18713;BMP280;9485;49.386;8.674;2023-07-24T08:27:36;99434.38;;;25.99
18713;BMP280;9485;49.386;8.674;2023-07-24T08:32:57;99425.84;;;26.01
18713;BMP280;9485;49.386;8.674;2023-07-24T08:38:18;99425.31;;;25.93
18713;BMP280;9485;49.386;8.674;2023-07-24T08:43:42;99410.09;;;26.04
18713;BMP280;9485;49.386;8.674;2023-07-24T08:49:04;99415.75;;;25.91
18713;BMP280;9485;49.386;8.674;2023-07-24T08:54:26;99411.97;;;26.00
18713;BMP280;9485;49.386;8.674;2023-07-24T08:59:48;99404.63;;;27.38
18713;BMP280;9485;49.386;8.674;2023-07-24T09:05:09;99397.13;;;27.46
18713;BMP280;9485;49.386;8.674;2023-07-24T09:10:31;99402.31;;;27.12
18713;BMP280;9485;49.386;8.674;2023-07-24T09:15:54;99405.94;;;26.76
18713;BMP280;9485;49.386;8.674;2023-07-24T09:21:15;99392.34;;;26.67
18713;BMP280;9485;49.386;8.674;2023-07-24T09:26:49;99383.44;;;26.52
18713;BMP280;9485;49.386;8.674;2023-07-24T09:32:20;99389.44;;;26.67
18713;BMP280;9485;49.386;8.674;2023-07-24T09:37:42;99378.44;;;27.00
18713;BMP280;9485;49.386;8.674;2023-07-24T09:43:03;99384.25;;;27.00
18713;BMP280;9485;49.386;8.674;2023-07-24T09:48:27;99388.13;;;26.93
18713;BMP280;9485;49.386;8.674;2023-07-24T09:53:55;99369.78;;;26.77
18713;BMP280;9485;49.386;8.674;2023-07-24T09:59:17;99380.41;;;26.61
18713;BMP280;9485;49.386;8.674;2023-07-24T10:04:40;99395.66;;;26.61
18713;BMP280;9485;49.386;8.674;2023-07-24T10:10:02;99380.16;;;26.68
18713;BMP280;9485;49.386;8.674;2023-07-24T10:15:23;99361.53;;;26.49
18713;BMP280;9485;49.386;8.674;2023-07-24T10:20:47;99387.31;;;26.33
18713;BMP280;9485;49.386;8.674;2023-07-24T10:26:09;99386.97;;;26.16
18713;BMP280;9485;49.386;8.674;2023-07-24T10:31:30;99370.09;;;26.12
18713;BMP280;9485;49.386;8.674;2023-07-24T10:37:02;99384.56;;;26.12
18713;BMP280;9485;49.386;8.674;2023-07-24T10:42:25;99384.56;;;26.12
18713;BMP280;9485;49.386;8.674;2023-07-24T10:47:47;99383.47;;;26.06
18713;BMP280;9485;49.386;8.674;2023-07-24T10:53:13;99377.53;;;26.15
18713;BMP280;9485;49.386;8.674;2023-07-24T10:58:35;99384.19;;;26.18
18713;BMP280;9485;49.386;8.674;2023-07-24T11:03:56;99390.59;;;26.28
18713;BMP280;9485;49.386;8.674;2023-07-24T11:09:18;99400.44;;;26.46
18713;BMP280;9485;49.386;8.674;2023-07-24T11:14:48;99373.75;;;26.47
18713;BMP280;9485;49.386;8.674;2023-07-24T11:20:12;99372.94;;;26.69
18713;BMP280;9485;49.386;8.674;2023-07-24T11:25:34;99368.41;;;26.78
18713;BMP280;9485;49.386;8.674;2023-07-24T11:30:54;99367.59;;;26.89
18713;BMP280;9485;49.386;8.674;2023-07-24T11:36:24;99366.16;;;27.13
18713;BMP280;9485;49.386;8.674;2023-07-24T11:41:46;99371.03;;;27.22
18713;BMP280;9485;49.386;8.674;2023-07-24T11:47:07;99359.56;;;27.48
18713;BMP280;9485;49.386;8.674;2023-07-24T11:52:38;99366.56;;;27.95
18713;BMP280;9485;49.386;8.674;2023-07-24T11:58:02;99345.16;;;27.50
18713;BMP280;9485;49.386;8.674;2023-07-24T12:03:26;99345.59;;;27.20
18713;BMP280;9485;49.386;8.674;2023-07-24T12:08:48;99338.44;;;27.59
18713;BMP280;9485;49.386;8.674;2023-07-24T12:14:10;99340.34;;;27.80
18713;BMP280;9485;49.386;8.674;2023-07-24T12:19:31;99330.56;;;27.48
18713;BMP280;9485;49.386;8.674;2023-07-24T12:24:52;99311.75;;;27.49
18713;BMP280;9485;49.386;8.674;2023-07-24T12:30:15;99312.69;;;26.91
18713;BMP280;9485;49.386;8.674;2023-07-24T12:35:35;99314.53;;;26.73
18713;BMP280;9485;49.386;8.674;2023-07-24T12:40:56;99312.03;;;26.67
18713;BMP280;9485;49.386;8.674;2023-07-24T12:46:18;99293.41;;;26.59
18713;BMP280;9485;49.386;8.674;2023-07-24T12:51:39;99297.94;;;26.62
18713;BMP280;9485;49.386;8.674;2023-07-24T12:57:00;99298.03;;;27.12
18713;BMP280;9485;49.386;8.674;2023-07-24T13:02:22;99290.78;;;27.37
18713;BMP280;9485;49.386;8.674;2023-07-24T13:07:43;99292.41;;;27.79
18713;BMP280;9485;49.386;8.674;2023-07-24T13:13:05;99290.75;;;29.12
18713;BMP280;9485;49.386;8.674;2023-07-24T13:18:29;99263.34;;;29.76
18713;BMP280;9485;49.386;8.674;2023-07-24T13:23:50;99269.31;;;31.27
18713;BMP280;9485;49.386;8.674;2023-07-24T13:29:11;99246.94;;;31.51
18713;BMP280;9485;49.386;8.674;2023-07-24T13:34:34;99224.53;;;31.75
18713;BMP280;9485;49.386;8.674;2023-07-24T13:39:55;99217.09;;;32.71
18713;BMP280;9485;49.386;8.674;2023-07-24T13:45:16;99195.56;;;32.60
18713;BMP280;9485;49.386;8.674;2023-07-24T13:50:37;99168.22;;;32.73
18713;BMP280;9485;49.386;8.674;2023-07-24T13:55:58;99165.94;;;33.14
18713;BMP280;9485;49.386;8.674;2023-07-24T14:01:19;99179.38;;;33.47
18713;BMP280;9485;49.386;8.674;2023-07-24T14:06:41;99169.78;;;32.76
18713;BMP280;9485;49.386;8.674;2023-07-24T14:12:02;99156.00;;;31.76
18713;BMP280;9485;49.386;8.674;2023-07-24T14:17:23;99143.44;;;31.15
18713;BMP280;9485;49.386;8.674;2023-07-24T14:22:45;99135.06;;;30.88
18713;BMP280;9485;49.386;8.674;2023-07-24T14:28:06;99145.13;;;30.33
18713;BMP280;9485;49.386;8.674;2023-07-24T14:33:27;99173.44;;;29.82
18713;BMP280;9485;49.386;8.674;2023-07-24T14:38:50;99206.88;;;28.62
18713;BMP280;9485;49.386;8.674;2023-07-24T14:44:11;99255.44;;;25.71
18713;BMP280;9485;49.386;8.674;2023-07-24T14:49:33;99267.84;;;24.22
18713;BMP280;9485;49.386;8.674;2023-07-24T14:54:56;99219.47;;;23.08
18713;BMP280;9485;49.386;8.674;2023-07-24T15:00:17;99240.91;;;22.49
18713;BMP280;9485;49.386;8.674;2023-07-24T15:05:37;99238.03;;;22.39
18713;BMP280;9485;49.386;8.674;2023-07-24T15:11:00;99233.31;;;22.25
18713;BMP280;9485;49.386;8.674;2023-07-24T15:16:21;99247.06;;;22.07
18713;BMP280;9485;49.386;8.674;2023-07-24T15:21:42;99261.28;;;21.96
18713;BMP280;9485;49.386;8.674;2023-07-24T15:27:04;99241.16;;;22.05
18713;BMP280;9485;49.386;8.674;2023-07-24T15:32:28;99254.53;;;22.58
18713;BMP280;9485;49.386;8.674;2023-07-24T15:37:48;99254.00;;;23.08
18713;BMP280;9485;49.386;8.674;2023-07-24T15:43:11;99243.16;;;23.37
18713;BMP280;9485;49.386;8.674;2023-07-24T15:48:32;99252.31;;;23.54
18713;BMP280;9485;49.386;8.674;2023-07-24T15:53:53;99254.22;;;23.71
18713;BMP280;9485;49.386;8.674;2023-07-24T15:59:16;99254.81;;;23.79
18713;BMP280;9485;49.386;8.674;2023-07-24T16:04:37;99245.72;;;23.73
18713;BMP280;9485;49.386;8.674;2023-07-24T16:09:58;99244.53;;;23.66
18713;BMP280;9485;49.386;8.674;2023-07-24T16:15:21;99241.63;;;23.66
18713;BMP280;9485;49.386;8.674;2023-07-24T16:20:42;99239.38;;;23.65
18713;BMP280;9485;49.386;8.674;2023-07-24T16:26:03;99245.06;;;23.84
18713;BMP280;9485;49.386;8.674;2023-07-24T16:31:27;99241.16;;;24.00
18713;BMP280;9485;49.386;8.674;2023-07-24T16:36:47;99249.25;;;24.13
18713;BMP280;9485;49.386;8.674;2023-07-24T16:42:08;99227.06;;;24.16
18713;BMP280;9485;49.386;8.674;2023-07-24T16:47:31;99227.44;;;24.10
18713;BMP280;9485;49.386;8.674;2023-07-24T16:52:51;99228.81;;;24.09
18713;BMP280;9485;49.386;8.674;2023-07-24T16:58:12;99247.72;;;24.12
18713;BMP280;9485;49.386;8.674;2023-07-24T17:03:34;99255.34;;;24.28
18713;BMP280;9485;49.386;8.674;2023-07-24T17:08:55;99265.41;;;24.27
18713;BMP280;9485;49.386;8.674;2023-07-24T17:14:16;99275.22;;;24.13
18713;BMP280;9485;49.386;8.674;2023-07-24T17:19:38;99277.75;;;23.98
18713;BMP280;9485;49.386;8.674;2023-07-24T17:24:59;99283.91;;;23.83
18713;BMP280;9485;49.386;8.674;2023-07-24T17:30:19;99285.47;;;23.65
18713;BMP280;9485;49.386;8.674;2023-07-24T17:35:42;99283.09;;;23.52
18713;BMP280;9485;49.386;8.674;2023-07-24T17:41:03;99281.13;;;23.54
18713;BMP280;9485;49.386;8.674;2023-07-24T17:46:24;99277.91;;;23.60
18713;BMP280;9485;49.386;8.674;2023-07-24T17:51:46;99281.72;;;23.53
18713;BMP280;9485;49.386;8.674;2023-07-24T17:57:07;99289.94;;;23.47
18713;BMP280;9485;49.386;8.674;2023-07-24T18:02:28;99292.66;;;23.45
18713;BMP280;9485;49.386;8.674;2023-07-24T18:07:50;99288.47;;;23.37
18713;BMP280;9485;49.386;8.674;2023-07-24T18:13:11;99296.09;;;23.23
18713;BMP280;9485;49.386;8.674;2023-07-24T18:18:32;99298.72;;;23.09
18713;BMP280;9485;49.386;8.674;2023-07-24T18:23:53;99295.97;;;23.02
18713;BMP280;9485;49.386;8.674;2023-07-24T18:29:16;99303.56;;;22.88
18713;BMP280;9485;49.386;8.674;2023-07-24T18:34:37;99311.75;;;22.72
18713;BMP280;9485;49.386;8.674;2023-07-24T18:39:59;99319.03;;;22.64
18713;BMP280;9485;49.386;8.674;2023-07-24T18:45:20;99327.78;;;22.47
18713;BMP280;9485;49.386;8.674;2023-07-24T18:50:40;99326.72;;;22.33
18713;BMP280;9485;49.386;8.674;2023-07-24T18:56:04;99336.38;;;22.19
18713;BMP280;9485;49.386;8.674;2023-07-24T19:01:25;99342.81;;;22.00
18713;BMP280;9485;49.386;8.674;2023-07-24T19:06:45;99346.13;;;21.88
18713;BMP280;9485;49.386;8.674;2023-07-24T19:12:08;99354.53;;;21.76
18713;BMP280;9485;49.386;8.674;2023-07-24T19:17:29;99368.25;;;21.68
18713;BMP280;9485;49.386;8.674;2023-07-24T19:22:49;99363.38;;;21.61
18713;BMP280;9485;49.386;8.674;2023-07-24T19:28:11;99365.78;;;21.55
18713;BMP280;9485;49.386;8.674;2023-07-24T19:33:32;99381.06;;;21.41
18713;BMP280;9485;49.386;8.674;2023-07-24T19:38:53;99375.09;;;21.29
18713;BMP280;9485;49.386;8.674;2023-07-24T19:44:14;99383.50;;;21.18
18713;BMP280;9485;49.386;8.674;2023-07-24T19:49:39;99379.06;;;21.08
18713;BMP280;9485;49.386;8.674;2023-07-24T19:54:59;99383.63;;;20.94
18713;BMP280;9485;49.386;8.674;2023-07-24T20:00:22;99372.47;;;20.81
18713;BMP280;9485;49.386;8.674;2023-07-24T20:05:52;99367.06;;;20.68
18713;BMP280;9485;49.386;8.674;2023-07-24T20:11:13;99363.38;;;20.58
18713;BMP280;9485;49.386;8.674;2023-07-24T20:16:35;99371.13;;;20.48
18713;BMP280;9485;49.386;8.674;2023-07-24T20:21:56;99369.09;;;20.41
18713;BMP280;9485;49.386;8.674;2023-07-24T20:27:17;99369.31;;;20.36
18713;BMP280;9485;49.386;8.674;2023-07-24T20:32:41;99377.78;;;20.34
18713;BMP280;9485;49.386;8.674;2023-07-24T20:38:05;99366.38;;;20.26
18713;BMP280;9485;49.386;8.674;2023-07-24T20:43:26;99380.09;;;20.28
18713;BMP280;9485;49.386;8.674;2023-07-24T20:48:48;99375.81;;;20.19
18713;BMP280;9485;49.386;8.674;2023-07-24T20:54:09;99381.44;;;20.10
18713;BMP280;9485;49.386;8.674;2023-07-24T20:59:29;99381.66;;;20.04
18713;BMP280;9485;49.386;8.674;2023-07-24T21:04:53;99384.59;;;19.97
18713;BMP280;9485;49.386;8.674;2023-07-24T21:10:15;99385.41;;;19.90
18713;BMP280;9485;49.386;8.674;2023-07-24T21:15:36;99389.25;;;19.85
18713;BMP280;9485;49.386;8.674;2023-07-24T21:20:57;99395.16;;;19.87
18713;BMP280;9485;49.386;8.674;2023-07-24T21:26:18;99398.38;;;19.91
18713;BMP280;9485;49.386;8.674;2023-07-24T21:31:40;99406.00;;;19.96
18713;BMP280;9485;49.386;8.674;2023-07-24T21:37:03;99408.88;;;19.96
18713;BMP280;9485;49.386;8.674;2023-07-24T21:42:24;99400.97;;;20.04
18713;BMP280;9485;49.386;8.674;2023-07-24T21:47:46;99402.09;;;20.08
18713;BMP280;9485;49.386;8.674;2023-07-24T21:53:08;99413.47;;;20.16
18713;BMP280;9485;49.386;8.674;2023-07-24T21:58:29;99407.69;;;20.23
18713;BMP280;9485;49.386;8.674;2023-07-24T22:03:50;99415.03;;;20.34
18713;BMP280;9485;49.386;8.674;2023-07-24T22:09:12;99413.28;;;20.38
18713;BMP280;9485;49.386;8.674;2023-07-24T22:14:33;99407.69;;;20.40
18713;BMP280;9485;49.386;8.674;2023-07-24T22:19:54;99408.47;;;20.40
18713;BMP280;9485;49.386;8.674;2023-07-24T22:25:16;99401.81;;;20.38
18713;BMP280;9485;49.386;8.674;2023-07-24T22:30:37;99399.88;;;20.40
18713;BMP280;9485;49.386;8.674;2023-07-24T22:35:58;99408.63;;;20.42
18713;BMP280;9485;49.386;8.674;2023-07-24T22:41:21;99407.03;;;20.49
18713;BMP280;9485;49.386;8.674;2023-07-24T22:46:41;99403.75;;;20.52
18713;BMP280;9485;49.386;8.674;2023-07-24T22:52:03;99399.72;;;20.55
18713;BMP280;9485;49.386;8.674;2023-07-24T22:57:26;99405.63;;;20.57
18713;BMP280;9485;49.386;8.674;2023-07-24T23:02:46;99412.28;;;20.60
18713;BMP280;9485;49.386;8.674;2023-07-24T23:08:07;99404.03;;;20.64
18713;BMP280;9485;49.386;8.674;2023-07-24T23:13:29;99403.78;;;20.69
18713;BMP280;9485;49.386;8.674;2023-07-24T23:18:49;99407.19;;;20.75
18713;BMP280;9485;49.386;8.674;2023-07-24T23:24:10;99391.41;;;20.84
18713;BMP280;9485;49.386;8.674;2023-07-24T23:29:33;99383.72;;;20.86
18713;BMP280;9485;49.386;8.674;2023-07-24T23:34:54;99382.69;;;20.91
18713;BMP280;9485;49.386;8.674;2023-07-24T23:40:15;99384.38;;;20.94
18713;BMP280;9485;49.386;8.674;2023-07-24T23:45:36;99400.00;;;21.01
18713;BMP280;9485;49.386;8.674;2023-07-24T23:50:57;99390.19;;;21.04
18713;BMP280;9485;49.386;8.674;2023-07-24T23:56:18;99389.34;;;21.11
